createdAt,value
2018-03-18T00:01:16.075Z,8.97
2018-03-18T00:03:50.239Z,7.95
2018-03-18T00:06:22.609Z,8.30
2018-03-18T00:08:54.091Z,8.90
2018-03-18T00:11:26.651Z,8.50
2018-03-18T00:13:58.304Z,8.57
2018-03-18T00:16:30.142Z,8.63
2018-03-18T00:19:03.970Z,8.10
2018-03-18T00:21:34.782Z,8.73
2018-03-18T00:24:05.834Z,8.93
2018-03-18T00:26:36.830Z,8.30
2018-03-18T00:29:08.219Z,8.55
2018-03-18T00:31:39.631Z,8.13
2018-03-18T00:34:14.505Z,8.53
2018-03-18T00:36:46.365Z,8.53
2018-03-18T00:39:19.094Z,9.50
2018-03-18T00:41:52.201Z,9.57
2018-03-18T00:44:22.501Z,9.07
2018-03-18T00:46:57.806Z,9.83
2018-03-18T00:49:28.907Z,9.77
2018-03-18T00:52:03.620Z,10.03
2018-03-18T00:54:35.744Z,9.43
2018-03-18T00:57:06.804Z,8.57
2018-03-18T00:59:36.825Z,9.30
2018-03-18T01:02:09.085Z,8.73
2018-03-18T01:04:41.218Z,10.30
2018-03-18T01:07:12.974Z,8.50
2018-03-18T01:09:44.040Z,9.53
2018-03-18T01:12:16.315Z,9.73
2018-03-18T01:14:48.106Z,9.73
2018-03-18T01:17:18.391Z,9.67
2018-03-18T01:19:49.363Z,10.73
2018-03-18T01:22:20.221Z,9.37
2018-03-18T01:24:55.954Z,9.10
2018-03-18T01:27:28.414Z,9.40
2018-03-18T01:30:00.476Z,9.50
2018-03-18T01:32:32.090Z,9.50
2018-03-18T01:35:03.988Z,10.33
2018-03-18T01:37:35.970Z,9.57
2018-03-18T01:40:10.838Z,9.97
2018-03-18T01:42:43.341Z,10.07
2018-03-18T01:45:16.261Z,10.80
2018-03-18T01:47:50.164Z,10.83
2018-03-18T01:50:26.152Z,10.20
2018-03-18T01:53:14.333Z,10.90
2018-03-18T01:55:44.923Z,11.33
2018-03-18T01:58:17.364Z,11.07
2018-03-18T02:00:49.027Z,11.02
2018-03-18T02:03:20.804Z,11.47
2018-03-18T02:05:53.024Z,9.97
2018-03-18T02:08:26.876Z,10.87
2018-03-18T02:11:01.180Z,9.73
2018-03-18T02:13:32.176Z,10.23
2018-03-18T02:16:05.135Z,10.20
2018-03-18T02:18:37.702Z,10.23
2018-03-18T02:21:09.331Z,10.30
2018-03-18T02:23:40.422Z,10.63
2018-03-18T02:26:13.844Z,10.07
2018-03-18T02:28:45.565Z,10.47
2018-03-18T02:31:18.354Z,10.60
2018-03-18T02:33:48.585Z,10.43
2018-03-18T02:36:18.969Z,10.67
2018-03-18T02:38:54.888Z,10.60
2018-03-18T02:41:26.433Z,10.07
2018-03-18T02:43:56.757Z,9.20
2018-03-18T02:46:29.361Z,10.93
2018-03-18T02:49:02.632Z,10.23
2018-03-18T02:51:32.944Z,9.88
2018-03-18T02:54:05.418Z,9.95
2018-03-18T02:56:38.697Z,9.90
2018-03-18T02:59:11.584Z,9.90
2018-03-18T03:01:42.099Z,10.07
2018-03-18T03:04:12.626Z,9.33
2018-03-18T03:06:44.847Z,9.70
2018-03-18T03:09:15.155Z,9.60
2018-03-18T03:11:46.285Z,10.07
2018-03-18T03:14:16.786Z,9.73
2018-03-18T03:16:47.018Z,9.63
2018-03-18T03:19:18.164Z,9.47
2018-03-18T03:21:51.038Z,9.80
2018-03-18T03:24:23.217Z,9.50
2018-03-18T03:26:53.869Z,10.40
2018-03-18T03:29:24.020Z,10.77
2018-03-18T03:31:54.483Z,10.70
2018-03-18T03:34:25.921Z,9.60
2018-03-18T03:36:56.328Z,10.17
2018-03-18T03:39:27.839Z,10.10
2018-03-18T03:42:01.165Z,9.13
2018-03-18T03:44:31.465Z,10.07
2018-03-18T03:47:01.660Z,9.70
2018-03-18T03:49:32.144Z,9.53
2018-03-18T03:52:05.397Z,10.43
2018-03-18T03:54:41.500Z,10.67
2018-03-18T03:57:13.795Z,11.52
2018-03-18T03:59:46.430Z,11.60
2018-03-18T04:02:16.853Z,11.30
2018-03-18T04:04:50.065Z,11.48
2018-03-18T04:07:21.273Z,12.57
2018-03-18T04:09:53.505Z,11.60
2018-03-18T04:12:24.641Z,12.33
2018-03-18T04:17:59.724Z,12.55
2018-03-18T04:20:37.227Z,13.50
2018-03-18T04:23:08.705Z,12.93
2018-03-18T04:25:40.177Z,14.00
2018-03-18T04:28:11.947Z,14.07
2018-03-18T04:30:43.138Z,13.67
2018-03-18T04:33:19.879Z,15.47
2018-03-18T04:35:51.441Z,14.93
2018-03-18T04:38:21.899Z,14.47
2018-03-18T04:40:53.572Z,14.63
2018-03-18T04:43:25.082Z,15.80
2018-03-18T04:45:57.398Z,14.72
2018-03-18T04:48:27.638Z,15.27
2018-03-18T04:50:57.684Z,14.87
2018-03-18T04:53:29.691Z,15.30
2018-03-18T04:55:59.598Z,14.45
2018-03-18T04:58:30.364Z,15.47
2018-03-18T05:01:04.048Z,14.80
2018-03-18T05:03:34.212Z,14.27
2018-03-18T05:06:10.135Z,13.70
2018-03-18T05:08:45.857Z,13.63
2018-03-18T05:11:15.850Z,13.63
2018-03-18T05:13:52.690Z,14.00
2018-03-18T05:16:24.173Z,14.57
2018-03-18T05:18:59.563Z,14.27
2018-03-18T05:21:29.303Z,14.13
2018-03-18T05:24:00.502Z,14.80
2018-03-18T05:26:34.815Z,14.83
2018-03-18T05:29:13.016Z,14.52
2018-03-18T05:31:43.214Z,15.27
2018-03-18T05:34:13.987Z,14.60
2018-03-18T05:36:45.782Z,14.57
2018-03-18T05:39:16.571Z,14.73
2018-03-18T05:41:46.222Z,14.67
2018-03-18T05:44:16.772Z,14.40
2018-03-18T05:46:46.637Z,15.03
2018-03-18T05:49:18.023Z,14.87
2018-03-18T05:51:48.685Z,14.33
2018-03-18T05:54:20.189Z,14.83
2018-03-18T05:56:50.947Z,14.30
2018-03-18T05:59:21.809Z,13.90
2018-03-18T06:01:58.141Z,14.03
2018-03-18T06:04:29.863Z,14.17
2018-03-18T06:07:01.284Z,13.73
2018-03-18T06:09:39.897Z,13.80
2018-03-18T06:12:11.685Z,14.43
2018-03-18T06:14:41.705Z,13.77
2018-03-18T06:17:17.762Z,14.07
2018-03-18T06:19:50.204Z,14.43
2018-03-18T06:22:21.171Z,14.23
2018-03-18T06:24:57.152Z,14.40
2018-03-18T06:27:31.665Z,14.67
2018-03-18T06:30:04.643Z,14.83
2018-03-18T06:32:37.369Z,14.97
2018-03-18T06:35:07.492Z,14.80
2018-03-18T06:37:38.101Z,16.10
2018-03-18T06:40:09.145Z,15.33
2018-03-18T06:42:42.144Z,15.60
2018-03-18T06:45:11.983Z,15.70
2018-03-18T06:47:44.674Z,15.27
2018-03-18T06:50:14.712Z,16.43
2018-03-18T06:52:46.397Z,15.67
2018-03-18T06:55:37.434Z,14.48
2018-03-18T06:58:08.748Z,13.90
2018-03-18T07:00:38.798Z,13.83
2018-03-18T07:03:11.830Z,14.83
2018-03-18T07:05:43.145Z,15.38
2018-03-18T07:08:12.799Z,14.60
2018-03-18T07:10:45.315Z,14.60
2018-03-18T07:13:16.889Z,15.53
2018-03-18T07:15:49.789Z,15.03
2018-03-18T07:18:20.305Z,15.20
2018-03-18T07:20:50.344Z,15.47
2018-03-18T07:23:21.967Z,14.40
2018-03-18T07:25:54.524Z,23.73
2018-03-18T07:28:26.489Z,20.10
2018-03-18T07:30:57.574Z,18.53
2018-03-18T07:40:12.428Z,28.07
2018-03-18T07:42:41.929Z,14.00
2018-03-18T07:45:12.032Z,14.67
2018-03-18T07:47:42.322Z,14.23
2018-03-18T07:50:11.615Z,16.90
2018-03-18T07:52:41.625Z,14.43
2018-03-18T07:55:11.097Z,15.10
2018-03-18T07:57:41.471Z,17.00
2018-03-18T08:00:12.591Z,15.60
2018-03-18T08:02:41.940Z,14.30
2018-03-18T08:05:11.688Z,18.23
2018-03-18T08:07:43.714Z,14.77
2018-03-18T08:10:13.506Z,17.20
2018-03-18T08:12:44.479Z,23.73
2018-03-18T08:15:14.011Z,15.43
2018-03-18T08:17:44.961Z,16.63
2018-03-18T08:20:16.542Z,15.00
2018-03-18T08:22:47.332Z,15.87
2018-03-18T08:25:20.706Z,18.10
2018-03-18T08:27:52.303Z,13.37
2018-03-18T08:30:23.723Z,15.35
2018-03-18T08:32:56.267Z,19.87
2018-03-18T08:35:28.718Z,15.37
2018-03-18T08:38:00.665Z,18.70
2018-03-18T08:40:33.122Z,13.77
2018-03-18T08:43:07.699Z,21.77
2018-03-18T08:45:40.989Z,14.70
2018-03-18T08:48:12.157Z,17.80
2018-03-18T08:50:43.406Z,14.23
2018-03-18T08:53:13.374Z,14.47
2018-03-18T08:55:46.290Z,13.60
2018-03-18T08:58:18.095Z,16.77
2018-03-18T09:00:50.316Z,14.87
2018-03-18T09:03:26.292Z,13.88
2018-03-18T09:05:56.807Z,14.00
2018-03-18T09:08:38.555Z,12.53
2018-03-18T09:11:09.054Z,12.50
2018-03-18T09:13:39.710Z,13.17
2018-03-18T09:16:09.921Z,13.27
2018-03-18T09:18:39.219Z,12.87
2018-03-18T09:21:08.547Z,13.40
2018-03-18T09:23:37.889Z,15.05
2018-03-18T09:26:07.222Z,14.70
2018-03-18T09:28:36.511Z,13.53
2018-03-18T09:31:06.019Z,13.70
2018-03-18T09:33:35.300Z,15.17
2018-03-18T09:36:04.679Z,14.47
2018-03-18T09:38:34.235Z,12.33
2018-03-18T09:41:33.880Z,12.80
2018-03-18T09:44:04.149Z,12.50
2018-03-18T09:46:33.465Z,13.37
2018-03-18T09:49:03.527Z,13.68
2018-03-18T09:51:33.678Z,13.23
2018-03-18T09:54:04.316Z,13.57
2018-03-18T09:56:33.973Z,12.90
2018-03-18T09:59:04.315Z,14.48
2018-03-18T10:01:40.072Z,13.98
2018-03-18T10:04:10.508Z,13.88
2018-03-18T10:06:42.675Z,13.53
2018-03-18T10:09:17.223Z,14.52
2018-03-18T10:11:47.064Z,14.03
2018-03-18T10:14:16.385Z,13.67
2018-03-18T10:16:45.872Z,14.25
2018-03-18T10:19:15.287Z,13.33
2018-03-18T10:21:44.583Z,12.97
2018-03-18T10:24:13.871Z,14.17
2018-03-18T10:26:43.331Z,13.27
2018-03-18T10:29:12.691Z,13.63
2018-03-18T10:31:42.007Z,13.82
2018-03-18T10:34:12.885Z,13.35
2018-03-18T10:36:42.191Z,14.33
2018-03-18T10:39:18.162Z,13.13
2018-03-18T10:41:53.354Z,14.30
2018-03-18T10:44:23.147Z,13.93
2018-03-18T10:46:52.726Z,13.77
2018-03-18T10:49:24.024Z,13.60
2018-03-18T10:51:55.010Z,13.57
2018-03-18T10:54:26.435Z,13.50
2018-03-18T10:56:56.076Z,12.43
2018-03-18T10:59:25.386Z,13.80
2018-03-18T11:05:11.124Z,14.63
2018-03-18T11:07:41.196Z,14.67
2018-03-18T11:10:10.674Z,13.85
2018-03-18T11:12:40.008Z,15.30
2018-03-18T11:15:10.057Z,15.43
2018-03-18T11:17:41.451Z,14.87
2018-03-18T11:20:12.663Z,14.00
2018-03-18T11:22:45.736Z,15.10
2018-03-18T11:25:15.404Z,16.10
2018-03-18T11:27:46.744Z,15.33
2018-03-18T11:30:19.386Z,15.27
2018-03-18T11:32:49.523Z,16.60
2018-03-18T11:35:21.942Z,17.07
2018-03-18T11:37:56.277Z,17.57
2018-03-18T11:40:31.068Z,16.87
2018-03-18T11:43:01.656Z,16.73
2018-03-18T11:45:31.226Z,16.45
2018-03-18T11:48:05.985Z,15.08
2018-03-18T11:50:36.066Z,16.03
2018-03-18T11:53:05.785Z,15.87
2018-03-18T11:55:35.649Z,15.60
2018-03-18T11:58:06.507Z,14.87
2018-03-18T12:00:36.924Z,16.47
2018-03-18T12:03:07.346Z,16.00
2018-03-18T12:05:39.413Z,14.97
2018-03-18T12:08:09.183Z,15.52
2018-03-18T12:10:39.622Z,16.47
2018-03-18T12:13:08.986Z,15.88
2018-03-18T12:15:38.258Z,15.80
2018-03-18T12:18:09.397Z,16.47
2018-03-18T12:20:39.766Z,16.77
2018-03-18T12:23:09.198Z,16.27
2018-03-18T12:25:39.200Z,15.73
2018-03-18T12:28:08.943Z,20.67
2018-03-18T12:30:38.295Z,17.77
2018-03-18T12:33:08.078Z,17.83
2018-03-18T12:35:37.477Z,18.00
2018-03-18T12:38:07.278Z,18.23
2018-03-18T12:40:36.663Z,22.27
2018-03-18T12:43:31.228Z,17.37
2018-03-18T12:46:01.878Z,17.92
2018-03-18T12:48:31.663Z,16.80
2018-03-18T12:51:02.125Z,18.15
2018-03-18T12:53:31.415Z,17.90
2018-03-18T12:56:01.371Z,17.98
2018-03-18T12:58:32.194Z,16.73
2018-03-18T13:01:02.480Z,17.45
2018-03-18T13:03:31.781Z,16.87
2018-03-18T13:06:01.857Z,16.52
2018-03-18T13:08:31.855Z,16.20
2018-03-18T13:11:01.904Z,16.02
2018-03-18T13:13:32.676Z,16.55
2018-03-18T13:16:03.314Z,16.80
2018-03-18T13:18:32.610Z,17.13
2018-03-18T13:21:01.926Z,17.50
2018-03-18T13:23:31.737Z,17.15
2018-03-18T13:26:06.371Z,16.67
2018-03-18T13:28:36.948Z,16.30
2018-03-18T13:31:09.991Z,16.67
2018-03-18T13:33:41.704Z,15.37
2018-03-18T13:36:13.345Z,15.10
2018-03-18T13:38:46.039Z,15.50
2018-03-18T13:41:18.376Z,15.87
2018-03-18T13:43:51.388Z,15.50
2018-03-18T13:46:25.241Z,15.95
2018-03-18T13:48:57.998Z,15.53
2018-03-18T13:51:29.821Z,14.87
2018-03-18T13:54:04.094Z,15.63
2018-03-18T13:56:38.079Z,16.23
2018-03-18T13:59:08.008Z,16.40
2018-03-18T14:01:41.057Z,14.68
2018-03-18T14:04:20.293Z,16.67
2018-03-18T14:06:53.149Z,15.40
2018-03-18T14:09:23.703Z,16.40
2018-03-18T14:11:56.017Z,17.57
2018-03-18T14:14:30.195Z,17.97
2018-03-18T14:17:38.465Z,15.90
2018-03-18T14:20:13.294Z,17.07
2018-03-18T14:22:43.688Z,15.77
2018-03-18T14:25:17.091Z,16.87
2018-03-18T14:27:49.017Z,17.33
2018-03-18T14:30:20.284Z,15.70
2018-03-18T14:32:59.782Z,17.43
2018-03-18T14:35:29.935Z,16.90
2018-03-18T14:38:08.756Z,17.87
2018-03-18T14:40:38.794Z,17.37
2018-03-18T14:43:11.731Z,17.07
2018-03-18T14:45:44.816Z,16.90
2018-03-18T14:48:14.692Z,18.30
2018-03-18T14:50:51.395Z,16.30
2018-03-18T14:53:21.734Z,15.23
2018-03-18T14:55:53.922Z,16.65
2018-03-18T14:58:24.621Z,16.07
2018-03-18T15:00:59.706Z,16.05
2018-03-18T15:03:31.309Z,16.43
2018-03-18T15:06:03.995Z,17.97
2018-03-18T15:08:34.741Z,17.00
2018-03-18T15:11:05.780Z,17.08
2018-03-18T15:13:36.774Z,18.30
2018-03-18T15:16:09.246Z,16.63
2018-03-18T15:18:43.098Z,15.83
2018-03-18T15:21:17.232Z,18.80
2018-03-18T15:23:51.806Z,17.83
2018-03-18T15:29:06.468Z,16.67
2018-03-18T15:31:39.608Z,15.95
2018-03-18T15:34:10.428Z,18.33
2018-03-18T15:36:44.498Z,18.83
2018-03-18T15:39:15.913Z,15.83
2018-03-18T15:41:50.964Z,16.87
2018-03-18T15:44:25.622Z,17.10
2018-03-18T15:46:56.355Z,15.27
2018-03-18T15:49:27.647Z,16.53
2018-03-18T15:52:00.599Z,17.17
2018-03-18T15:54:35.778Z,17.83
2018-03-18T15:57:05.831Z,16.53
2018-03-18T15:59:39.321Z,18.10
2018-03-18T16:02:11.417Z,18.30
2018-03-18T16:04:41.643Z,17.90
2018-03-18T16:07:12.728Z,16.80
2018-03-18T16:09:42.867Z,18.23
2018-03-18T16:12:16.365Z,18.40
2018-03-18T16:14:48.103Z,17.47
2018-03-18T16:17:20.232Z,18.77
2018-03-18T16:19:53.414Z,18.87
2018-03-18T16:22:25.121Z,18.43
2018-03-18T16:24:55.093Z,17.93
2018-03-18T16:27:27.713Z,18.30
2018-03-18T16:30:15.539Z,17.03
2018-03-18T16:32:47.582Z,18.30
2018-03-18T16:35:20.386Z,17.10
2018-03-18T16:37:51.933Z,17.20
2018-03-18T16:40:24.865Z,17.43
2018-03-18T16:42:55.012Z,17.52
2018-03-18T16:45:25.472Z,17.23
2018-03-18T16:47:58.291Z,17.17
2018-03-18T16:50:34.180Z,18.83
2018-03-18T16:53:05.398Z,15.50
2018-03-18T16:55:36.683Z,18.37
2018-03-18T16:58:09.559Z,17.40
2018-03-18T17:00:41.447Z,17.40
2018-03-18T17:03:16.549Z,18.57
2018-03-18T17:05:48.327Z,19.43
2018-03-18T17:08:19.180Z,17.50
2018-03-18T17:10:49.028Z,18.40
2018-03-18T17:13:20.233Z,17.83
2018-03-18T17:16:00.175Z,18.03
2018-03-18T17:18:30.752Z,19.70
2018-03-18T17:21:01.921Z,18.73
2018-03-18T17:23:32.967Z,19.27
2018-03-18T17:26:04.120Z,14.30
2018-03-18T17:28:39.654Z,18.67
2018-03-18T17:31:12.427Z,18.37
2018-03-18T17:34:01.421Z,19.13
2018-03-18T17:36:34.443Z,16.63
2018-03-18T17:39:07.920Z,18.17
2018-03-18T17:41:41.548Z,18.67
2018-03-18T17:47:32.708Z,18.60
2018-03-18T17:50:24.861Z,19.07
2018-03-18T17:53:14.730Z,19.27
2018-03-18T17:55:48.934Z,18.90
2018-03-18T17:58:19.422Z,20.30
2018-03-18T18:00:53.173Z,20.93
2018-03-18T18:03:24.274Z,20.53
2018-03-18T18:05:54.264Z,22.47
2018-03-18T18:08:31.193Z,22.57
2018-03-18T18:11:03.451Z,22.20
2018-03-18T18:13:36.779Z,19.47
2018-03-18T18:16:10.873Z,19.93
2018-03-18T18:18:44.370Z,20.57
2018-03-18T18:21:15.724Z,20.07
2018-03-18T18:23:47.915Z,21.50
2018-03-18T18:26:27.431Z,21.43
2018-03-18T18:29:04.475Z,21.10
2018-03-18T18:31:36.411Z,19.73
2018-03-18T18:34:11.135Z,21.73
2018-03-18T18:36:40.832Z,21.30
2018-03-18T18:39:11.751Z,23.03
2018-03-18T18:41:43.240Z,21.93
2018-03-18T18:44:18.240Z,26.60
2018-03-18T18:46:51.410Z,21.50
2018-03-18T18:49:22.109Z,19.47
2018-03-18T18:51:54.093Z,20.30
2018-03-18T18:54:33.869Z,20.50
2018-03-18T18:57:06.959Z,19.65
2018-03-18T18:59:37.026Z,19.77
2018-03-18T19:02:08.064Z,18.40
2018-03-18T19:04:39.168Z,19.87
2018-03-18T19:07:10.938Z,19.70
2018-03-18T19:09:44.766Z,18.97
2018-03-18T19:12:15.236Z,19.20
2018-03-18T19:14:45.176Z,18.23
2018-03-18T19:17:14.824Z,18.10
2018-03-18T19:19:44.700Z,18.00
2018-03-18T19:22:17.689Z,18.23
2018-03-18T19:24:49.891Z,19.33
2018-03-18T19:27:19.954Z,18.33
2018-03-18T19:29:57.906Z,18.40
2018-03-18T19:32:30.596Z,18.13
2018-03-18T19:35:01.525Z,17.43
2018-03-18T19:37:31.483Z,17.70
2018-03-18T19:40:06.359Z,19.23
2018-03-18T19:42:36.370Z,18.63
2018-03-18T19:45:08.467Z,17.67
2018-03-18T19:47:42.441Z,18.37
2018-03-18T19:50:15.924Z,17.37
2018-03-18T19:52:47.913Z,17.27
2018-03-18T19:55:22.032Z,16.05
2018-03-18T19:57:56.540Z,16.70
2018-03-18T20:00:29.341Z,17.67
2018-03-18T20:02:59.808Z,18.30
2018-03-18T20:05:30.461Z,16.47
2018-03-18T20:08:00.013Z,16.63
2018-03-18T20:10:30.858Z,17.77
2018-03-18T20:13:04.301Z,18.12
2018-03-18T20:15:35.147Z,17.57
2018-03-18T20:18:11.338Z,17.30
2018-03-18T20:20:45.223Z,18.27
2018-03-18T20:23:16.501Z,17.87
2018-03-18T20:25:49.349Z,17.73
2018-03-18T20:28:19.030Z,17.77
2018-03-18T20:30:54.877Z,16.83
2018-03-18T20:33:28.068Z,17.63
2018-03-18T20:35:58.444Z,17.80
2018-03-18T20:38:32.114Z,18.10
2018-03-18T20:41:14.232Z,19.43
2018-03-18T20:43:46.690Z,19.97
2018-03-18T20:46:22.540Z,21.50
2018-03-18T20:48:59.653Z,21.30
2018-03-18T20:51:31.194Z,20.25
2018-03-18T20:54:01.769Z,22.20
2018-03-18T20:56:32.380Z,19.05
2018-03-18T20:59:05.827Z,18.90
2018-03-18T21:01:39.975Z,17.40
2018-03-18T21:04:11.582Z,17.47
2018-03-18T21:06:47.103Z,18.63
2018-03-18T21:09:17.064Z,21.07
2018-03-18T21:11:54.735Z,18.27
2018-03-18T21:14:31.534Z,22.80
2018-03-18T21:17:03.047Z,18.63
2018-03-18T21:19:35.461Z,19.00
2018-03-18T21:22:09.335Z,17.97
2018-03-18T21:24:42.917Z,18.45
2018-03-18T21:27:14.086Z,18.27
2018-03-18T21:32:53.419Z,18.00
2018-03-18T21:35:25.107Z,20.07
2018-03-18T21:37:56.817Z,20.50
2018-03-18T21:40:30.447Z,17.63
2018-03-18T21:43:01.079Z,17.75
2018-03-18T21:45:32.405Z,16.85
2018-03-18T21:48:03.633Z,17.80
2018-03-18T21:50:38.302Z,17.97
2018-03-18T21:53:08.927Z,16.83
2018-03-18T21:55:39.777Z,15.70
2018-03-18T21:58:12.545Z,16.60
2018-03-18T22:00:45.577Z,18.27
2018-03-18T22:03:17.643Z,17.43
2018-03-18T22:05:52.420Z,16.80
2018-03-18T22:08:25.080Z,19.75
2018-03-18T22:10:55.067Z,18.20
2018-03-18T22:13:27.800Z,17.73
2018-03-18T22:18:39.443Z,15.30
2018-03-18T22:21:12.327Z,16.00
2018-03-18T22:23:48.047Z,16.67
2018-03-18T22:26:18.831Z,15.73
2018-03-18T22:28:51.314Z,15.60
2018-03-18T22:31:28.291Z,14.83
2018-03-18T22:34:00.069Z,16.63
2018-03-18T22:36:32.322Z,14.97
2018-03-18T22:39:04.211Z,15.90
2018-03-18T22:41:37.296Z,14.27
2018-03-18T22:44:10.570Z,15.87
2018-03-18T22:46:40.647Z,16.03
2018-03-18T22:49:15.630Z,18.40
2018-03-18T22:51:48.590Z,15.43
2018-03-18T22:54:19.833Z,17.10
2018-03-18T22:56:55.156Z,15.90
2018-03-18T22:59:30.069Z,16.63
2018-03-18T23:02:01.931Z,16.00
2018-03-18T23:04:32.944Z,15.63
2018-03-18T23:07:02.946Z,15.33
2018-03-18T23:09:35.394Z,15.60
2018-03-18T23:12:11.081Z,15.67
2018-03-18T23:14:41.945Z,15.13
2018-03-18T23:17:11.554Z,16.87
2018-03-18T23:19:43.316Z,15.00
2018-03-18T23:22:13.579Z,15.40
2018-03-18T23:24:45.566Z,15.97
2018-03-18T23:27:21.201Z,15.73
2018-03-18T23:29:53.530Z,15.52
2018-03-18T23:32:24.667Z,14.97
2018-03-18T23:34:57.901Z,15.33
2018-03-18T23:37:32.848Z,15.87
2018-03-18T23:40:07.321Z,16.23
2018-03-18T23:42:38.853Z,16.08
2018-03-18T23:45:26.247Z,15.90
2018-03-18T23:47:57.198Z,15.33
2018-03-18T23:50:28.059Z,18.65
2018-03-18T23:53:00.763Z,16.93
2018-03-18T23:55:31.240Z,16.57
2018-03-18T23:58:01.037Z,16.40
